createdAt,value
2023-03-26T00:02:35.597Z,59.34
2023-03-26T00:08:02.187Z,58.79
2023-03-26T00:16:08.607Z,57.91
2023-03-26T00:18:58.554Z,57.72
2023-03-26T00:32:36.272Z,58.80
2023-03-26T00:35:02.715Z,58.31
2023-03-26T00:40:19.119Z,58.91
2023-03-26T00:48:17.696Z,58.88
2023-03-26T00:56:23.635Z,58.88
2023-03-26T01:09:43.112Z,61.93
2023-03-26T01:12:13.465Z,62.12
2023-03-26T01:14:39.859Z,61.44
2023-03-26T01:17:06.272Z,61.18
2023-03-26T01:19:33.250Z,61.24
2023-03-26T01:33:17.362Z,62.01
2023-03-26T01:49:12.909Z,62.00
2023-03-26T02:30:08.844Z,61.61
2023-03-26T02:40:54.590Z,62.09
2023-03-26T02:43:21.010Z,62.45
2023-03-26T02:45:47.581Z,62.58
2023-03-26T02:48:14.071Z,62.28
2023-03-26T02:50:44.556Z,62.59
2023-03-26T02:53:33.345Z,62.57
2023-03-26T02:58:41.587Z,62.32
2023-03-26T03:01:13.395Z,62.93
2023-03-26T03:03:47.867Z,62.73
2023-03-26T03:09:20.409Z,62.13
2023-03-26T03:11:47.365Z,61.54
2023-03-26T03:14:14.518Z,60.32
2023-03-26T03:16:41.232Z,60.98
2023-03-26T03:19:32.035Z,60.32
2023-03-26T03:21:58.456Z,60.46
2023-03-26T03:24:24.877Z,60.34
2023-03-26T03:26:51.317Z,60.58
2023-03-26T03:29:18.230Z,61.75
2023-03-26T03:31:44.665Z,62.76
2023-03-26T03:36:58.584Z,66.00
2023-03-26T03:39:50.350Z,65.88
2023-03-26T03:42:23.795Z,66.10
2023-03-26T03:44:51.674Z,65.49
2023-03-26T03:47:20.289Z,66.56
2023-03-26T03:49:46.727Z,66.36
2023-03-26T03:52:15.690Z,66.63
2023-03-26T03:54:42.122Z,65.67
2023-03-26T03:57:08.674Z,66.35
2023-03-26T03:59:35.163Z,67.54
2023-03-26T04:02:01.572Z,67.82
2023-03-26T04:04:29.923Z,67.17
2023-03-26T04:06:56.866Z,66.46
2023-03-26T04:09:26.177Z,66.95
2023-03-26T04:11:55.585Z,66.75
2023-03-26T04:14:24.185Z,66.97
2023-03-26T04:16:53.487Z,66.63
2023-03-26T04:19:21.831Z,65.95
2023-03-26T04:21:49.450Z,66.19
2023-03-26T04:24:18.004Z,65.47
2023-03-26T04:26:50.543Z,64.92
2023-03-26T04:29:17.236Z,65.55
2023-03-26T04:31:43.661Z,65.92
2023-03-26T04:34:10.116Z,65.21
2023-03-26T04:36:36.740Z,65.04
2023-03-26T04:39:06.675Z,65.50
2023-03-26T04:41:36.413Z,65.04
2023-03-26T04:44:06.942Z,64.86
2023-03-26T04:46:33.896Z,64.58
2023-03-26T04:49:00.618Z,64.59
2023-03-26T04:51:27.321Z,64.06
2023-03-26T04:53:54.208Z,64.27
2023-03-26T04:56:20.623Z,64.15
2023-03-26T04:58:47.171Z,64.79
2023-03-26T05:01:13.776Z,65.94
2023-03-26T05:03:40.276Z,66.78
2023-03-26T05:06:06.681Z,66.70
2023-03-26T05:08:33.190Z,67.74
2023-03-26T05:11:01.323Z,67.88
2023-03-26T05:13:29.025Z,68.88
2023-03-26T05:15:55.448Z,69.76
2023-03-26T05:18:21.956Z,69.87
2023-03-26T05:20:49.665Z,72.22
2023-03-26T05:23:16.143Z,71.65
2023-03-26T05:25:42.842Z,72.69
2023-03-26T05:28:09.268Z,74.51
2023-03-26T05:33:17.701Z,75.39
2023-03-26T05:35:49.740Z,75.07
2023-03-26T05:41:15.312Z,75.51
2023-03-26T05:43:45.938Z,75.68
2023-03-26T05:46:16.809Z,75.55
2023-03-26T05:51:46.634Z,76.07
2023-03-26T05:54:15.936Z,76.02
2023-03-26T06:02:30.455Z,75.41
2023-03-26T06:07:48.613Z,76.11
2023-03-26T06:15:41.935Z,75.78
2023-03-26T06:26:30.192Z,75.00
2023-03-26T06:34:23.437Z,75.03
2023-03-26T06:37:26.431Z,74.15
2023-03-26T06:53:34.581Z,75.55
2023-03-26T06:56:08.495Z,74.62
2023-03-26T07:14:57.041Z,75.90
2023-03-26T07:20:12.715Z,75.23
2023-03-26T07:22:48.655Z,75.78
2023-03-26T07:30:39.673Z,73.68
2023-03-26T07:38:44.946Z,74.00
2023-03-26T07:41:15.981Z,73.63
2023-03-26T07:47:00.641Z,73.56
2023-03-26T07:49:50.632Z,73.52
2023-03-26T07:52:21.686Z,76.13
2023-03-26T07:54:55.478Z,77.06
2023-03-26T07:57:34.984Z,76.38
2023-03-26T08:00:15.945Z,76.93
2023-03-26T08:02:53.181Z,77.07
2023-03-26T08:05:25.349Z,76.79
2023-03-26T08:07:56.110Z,76.01
2023-03-26T08:10:33.976Z,77.15
2023-03-26T08:13:14.692Z,75.83
2023-03-26T08:15:42.179Z,77.10
2023-03-26T08:18:09.821Z,76.27
2023-03-26T08:20:38.361Z,76.96
2023-03-26T08:23:05.930Z,76.27
2023-03-26T08:25:33.740Z,76.05
2023-03-26T08:28:01.095Z,75.65
2023-03-26T08:30:27.684Z,75.85
2023-03-26T08:32:55.306Z,74.96
2023-03-26T08:35:22.918Z,74.64
2023-03-26T08:37:50.471Z,75.20
2023-03-26T08:40:18.125Z,74.67
2023-03-26T08:42:45.642Z,74.66
2023-03-26T08:45:13.234Z,74.99
2023-03-26T08:47:39.890Z,74.27
2023-03-26T08:50:07.433Z,75.13
2023-03-26T08:52:34.019Z,73.84
2023-03-26T08:55:02.623Z,73.37
2023-03-26T08:57:30.204Z,73.08
2023-03-26T08:59:57.781Z,72.91
2023-03-26T09:02:24.366Z,71.19
2023-03-26T09:04:51.223Z,71.85
2023-03-26T09:07:18.570Z,71.88
2023-03-26T09:09:46.155Z,71.76
2023-03-26T09:12:13.769Z,72.41
2023-03-26T09:14:41.353Z,72.96
2023-03-26T09:17:07.940Z,71.99
2023-03-26T09:19:35.533Z,72.49
2023-03-26T09:22:04.153Z,72.77
2023-03-26T09:24:30.828Z,72.16
2023-03-26T09:26:58.301Z,70.25
2023-03-26T09:29:26.911Z,70.35
2023-03-26T09:31:54.564Z,70.52
2023-03-26T09:34:22.077Z,68.80
2023-03-26T09:36:49.680Z,70.88
2023-03-26T09:39:17.252Z,71.07
2023-03-26T09:41:43.864Z,70.70
2023-03-26T09:44:10.730Z,70.41
2023-03-26T09:46:38.041Z,69.27
2023-03-26T09:49:04.907Z,69.49
2023-03-26T09:51:32.223Z,68.02
2023-03-26T09:53:59.813Z,68.72
2023-03-26T09:56:28.796Z,69.19
2023-03-26T09:58:57.050Z,69.20
2023-03-26T10:01:25.577Z,67.06
2023-03-26T10:03:53.168Z,69.03
2023-03-26T10:06:22.430Z,67.83
2023-03-26T10:08:49.369Z,66.44
2023-03-26T10:11:16.957Z,66.42
2023-03-26T10:13:45.555Z,65.98
2023-03-26T10:16:13.219Z,66.16
2023-03-26T10:18:40.765Z,64.86
2023-03-26T10:21:08.366Z,64.75
2023-03-26T10:23:35.949Z,65.53
2023-03-26T10:26:04.537Z,65.09
2023-03-26T10:28:32.165Z,63.31
2023-03-26T10:31:00.793Z,62.28
2023-03-26T10:33:28.374Z,61.69
2023-03-26T10:35:55.057Z,63.40
2023-03-26T10:38:22.567Z,62.99
2023-03-26T10:40:50.230Z,62.73
2023-03-26T10:43:17.756Z,63.91
2023-03-26T10:45:44.698Z,63.57
2023-03-26T10:48:12.954Z,63.12
2023-03-26T10:50:40.538Z,64.60
2023-03-26T10:53:09.747Z,64.24
2023-03-26T10:55:36.731Z,62.40
2023-03-26T10:58:03.352Z,65.19
2023-03-26T11:00:30.935Z,61.43
2023-03-26T11:02:57.991Z,60.18
2023-03-26T11:05:25.138Z,56.82
2023-03-26T11:07:52.717Z,54.01
2023-03-26T11:10:20.306Z,51.44
2023-03-26T11:12:49.022Z,53.38
2023-03-26T11:15:18.212Z,51.76
2023-03-26T11:17:45.115Z,53.22
2023-03-26T11:20:12.700Z,50.27
2023-03-26T11:22:39.262Z,51.52
2023-03-26T11:25:06.879Z,53.27
2023-03-26T11:27:33.453Z,56.69
2023-03-26T11:30:01.041Z,58.44
2023-03-26T11:32:28.687Z,60.29
2023-03-26T11:34:56.245Z,60.03
2023-03-26T11:37:23.812Z,60.36
2023-03-26T11:39:53.895Z,60.66
2023-03-26T11:42:24.066Z,61.40
2023-03-26T11:44:51.629Z,60.45
2023-03-26T11:47:18.340Z,59.74
2023-03-26T11:49:46.818Z,61.38
2023-03-26T11:52:14.402Z,61.77
2023-03-26T11:54:42.001Z,61.39
2023-03-26T11:57:09.677Z,61.27
2023-03-26T11:59:48.840Z,61.01
2023-03-26T12:02:20.883Z,62.09
2023-03-26T12:04:48.432Z,62.52
2023-03-26T12:07:16.004Z,62.04
2023-03-26T12:09:43.584Z,61.54
2023-03-26T12:12:10.193Z,62.47
2023-03-26T12:14:37.775Z,60.72
2023-03-26T12:17:06.653Z,57.68
2023-03-26T12:19:33.965Z,56.97
2023-03-26T12:22:01.557Z,58.33
2023-03-26T12:24:30.161Z,55.78
2023-03-26T12:26:57.750Z,52.00
2023-03-26T12:29:25.396Z,52.34
2023-03-26T12:31:53.000Z,50.63
2023-03-26T12:34:22.042Z,52.33
2023-03-26T12:36:50.131Z,57.60
2023-03-26T12:40:08.827Z,58.67
2023-03-26T12:44:42.836Z,60.72
2023-03-26T12:44:58.936Z,61.24
2023-03-26T12:47:58.926Z,62.92
2023-03-26T12:50:13.388Z,62.58
2023-03-26T12:52:40.232Z,63.92
2023-03-26T12:55:12.374Z,67.02
2023-03-26T12:57:39.097Z,70.07
2023-03-26T13:00:05.738Z,73.28
2023-03-26T13:02:32.808Z,75.09
2023-03-26T13:05:05.502Z,75.25
2023-03-26T13:07:34.521Z,75.29
2023-03-26T13:10:03.131Z,71.63
2023-03-26T13:12:30.721Z,72.32
2023-03-26T13:14:59.321Z,72.40
2023-03-26T13:17:25.935Z,74.63
2023-03-26T13:19:53.508Z,76.14
2023-03-26T13:22:21.107Z,78.67
2023-03-26T13:24:48.709Z,76.37
2023-03-26T13:27:16.289Z,75.14
2023-03-26T13:29:43.927Z,76.12
2023-03-26T13:32:12.493Z,75.13
2023-03-26T13:34:40.094Z,72.99
2023-03-26T13:37:07.781Z,71.78
2023-03-26T13:39:35.311Z,70.11
2023-03-26T13:42:01.921Z,70.00
2023-03-26T13:44:29.500Z,68.83
2023-03-26T13:46:56.395Z,67.47
2023-03-26T13:49:24.680Z,67.43
2023-03-26T13:51:52.261Z,68.25
2023-03-26T13:54:19.854Z,67.09
2023-03-26T13:56:46.452Z,67.36
2023-03-26T13:59:14.050Z,62.85
2023-03-26T14:01:42.899Z,67.32
2023-03-26T14:04:11.218Z,66.16
2023-03-26T14:06:37.804Z,67.05
2023-03-26T14:09:05.387Z,63.33
2023-03-26T14:11:31.989Z,63.88
2023-03-26T14:14:00.602Z,64.65
2023-03-26T14:16:28.204Z,64.85
2023-03-26T14:18:56.787Z,63.86
2023-03-26T14:21:24.363Z,63.51
2023-03-26T14:23:52.953Z,62.19
2023-03-26T14:26:21.560Z,62.74
2023-03-26T14:28:50.156Z,58.63
2023-03-26T14:31:17.774Z,61.32
2023-03-26T14:33:45.348Z,59.86
2023-03-26T14:36:14.211Z,61.48
2023-03-26T14:38:41.598Z,62.09
2023-03-26T14:41:09.192Z,63.77
2023-03-26T14:43:35.695Z,60.59
2023-03-26T14:46:03.377Z,61.42
2023-03-26T14:48:29.998Z,62.48
2023-03-26T14:50:57.623Z,62.05
2023-03-26T14:53:25.124Z,61.17
2023-03-26T14:55:52.735Z,59.81
2023-03-26T14:58:21.592Z,58.41
2023-03-26T15:00:50.620Z,58.84
2023-03-26T15:03:17.547Z,56.00
2023-03-26T15:05:46.847Z,56.61
2023-03-26T15:08:13.784Z,55.79
2023-03-26T15:10:40.724Z,56.98
2023-03-26T15:13:08.916Z,57.47
2023-03-26T15:15:37.466Z,56.99
2023-03-26T15:18:04.050Z,56.67
2023-03-26T15:20:30.673Z,59.06
2023-03-26T15:22:58.246Z,58.18
2023-03-26T15:25:24.863Z,58.32
2023-03-26T15:27:51.465Z,59.48
2023-03-26T15:30:20.049Z,57.80
2023-03-26T15:32:46.681Z,59.09
2023-03-26T15:35:14.233Z,59.94
2023-03-26T15:37:41.836Z,59.46
2023-03-26T15:40:09.433Z,60.23
2023-03-26T15:42:37.894Z,59.13
2023-03-26T15:45:05.316Z,60.73
2023-03-26T15:47:32.328Z,61.00
2023-03-26T15:49:59.877Z,60.48
2023-03-26T15:52:26.451Z,59.70
2023-03-26T15:54:56.045Z,59.70
2023-03-26T15:57:22.654Z,59.74
2023-03-26T15:59:49.236Z,58.63
2023-03-26T16:02:16.856Z,58.43
2023-03-26T16:04:50.693Z,60.54
2023-03-26T16:07:20.036Z,60.96
2023-03-26T16:09:47.653Z,59.28
2023-03-26T16:12:15.211Z,61.01
2023-03-26T16:14:42.834Z,59.11
2023-03-26T16:17:10.394Z,58.21
2023-03-26T16:19:36.994Z,58.88
2023-03-26T16:22:03.423Z,59.32
2023-03-26T16:24:30.172Z,58.11
2023-03-26T16:26:57.830Z,57.26
2023-03-26T16:29:25.369Z,59.47
2023-03-26T16:31:52.237Z,58.30
2023-03-26T16:34:19.529Z,58.09
2023-03-26T16:36:46.140Z,56.37
2023-03-26T16:39:13.022Z,56.56
2023-03-26T16:41:39.462Z,57.17
2023-03-26T16:44:06.923Z,56.42
2023-03-26T16:46:34.575Z,55.96
2023-03-26T16:49:02.115Z,55.91
2023-03-26T16:51:28.704Z,56.00
2023-03-26T16:53:57.758Z,57.10
2023-03-26T16:56:25.921Z,57.58
2023-03-26T16:58:53.477Z,58.20
2023-03-26T17:01:22.119Z,58.52
2023-03-26T17:03:49.715Z,58.97
2023-03-26T17:06:16.654Z,59.52
2023-03-26T17:08:43.889Z,60.55
2023-03-26T17:11:10.487Z,60.59
2023-03-26T17:13:36.938Z,60.37
2023-03-26T17:16:03.358Z,60.70
2023-03-26T17:18:31.378Z,59.75
2023-03-26T17:20:58.928Z,58.79
2023-03-26T17:23:26.408Z,59.38
2023-03-26T17:25:53.011Z,58.79
2023-03-26T17:28:20.631Z,58.66
2023-03-26T17:30:48.237Z,58.68
2023-03-26T17:33:14.805Z,58.80
2023-03-26T17:35:42.419Z,57.38
2023-03-26T17:38:09.987Z,57.72
2023-03-26T17:40:37.618Z,57.95
2023-03-26T17:43:05.173Z,58.26
2023-03-26T17:45:32.811Z,58.36
2023-03-26T17:48:00.399Z,59.03
2023-03-26T17:50:27.929Z,59.30
2023-03-26T17:52:54.919Z,60.13
2023-03-26T17:55:22.120Z,60.64
2023-03-26T17:57:48.721Z,61.30
2023-03-26T18:00:16.329Z,61.05
2023-03-26T18:02:43.969Z,61.72
2023-03-26T18:05:11.494Z,62.07
2023-03-26T18:07:37.911Z,62.06
2023-03-26T18:10:04.385Z,61.66
2023-03-26T18:12:30.818Z,62.20
2023-03-26T18:14:57.867Z,62.44
2023-03-26T18:17:25.500Z,62.34
2023-03-26T18:19:53.042Z,61.87
2023-03-26T18:22:20.651Z,61.78
2023-03-26T18:24:47.127Z,61.88
2023-03-26T18:27:13.823Z,61.82
2023-03-26T18:29:40.407Z,61.83
2023-03-26T18:32:08.001Z,62.43
2023-03-26T18:34:35.596Z,61.92
2023-03-26T18:37:02.186Z,61.48
2023-03-26T18:39:28.618Z,62.45
2023-03-26T18:41:55.049Z,63.49
2023-03-26T18:44:21.946Z,65.53
2023-03-26T18:46:48.517Z,67.69
2023-03-26T18:49:16.202Z,70.09
2023-03-26T18:51:56.051Z,72.75
2023-03-26T18:54:24.396Z,72.36
2023-03-26T18:56:51.021Z,75.44
2023-03-26T18:59:21.459Z,77.28
2023-03-26T19:01:50.383Z,76.40
2023-03-26T19:04:19.371Z,75.41
2023-03-26T19:06:46.378Z,75.16
2023-03-26T19:09:27.923Z,75.75
2023-03-26T19:11:57.662Z,74.73
2023-03-26T19:14:25.240Z,76.38
2023-03-26T19:16:51.928Z,76.25
2023-03-26T19:19:19.465Z,75.85
2023-03-26T19:21:47.066Z,76.96
2023-03-26T19:24:14.644Z,77.01
2023-03-26T19:26:42.234Z,76.37
2023-03-26T19:29:08.996Z,76.23
2023-03-26T19:31:36.491Z,76.71
2023-03-26T19:34:04.043Z,75.68
2023-03-26T19:36:30.618Z,76.02
2023-03-26T19:38:58.268Z,75.83
2023-03-26T19:41:25.823Z,75.79
2023-03-26T19:43:53.402Z,75.63
2023-03-26T19:46:23.086Z,75.35
2023-03-26T19:48:50.621Z,75.28
2023-03-26T19:51:17.500Z,75.27
2023-03-26T19:53:44.827Z,74.15
2023-03-26T19:56:12.385Z,74.94
2023-03-26T19:58:39.973Z,74.62
2023-03-26T20:01:06.402Z,74.56
2023-03-26T20:03:33.263Z,73.65
2023-03-26T20:06:00.735Z,73.90
2023-03-26T20:08:27.326Z,74.59
2023-03-26T20:10:54.402Z,74.56
2023-03-26T20:13:21.537Z,75.26
2023-03-26T20:15:49.124Z,75.32
2023-03-26T20:18:32.769Z,74.79
2023-03-26T20:20:59.214Z,74.58
2023-03-26T20:23:25.641Z,74.78
2023-03-26T20:25:52.128Z,74.62
2023-03-26T20:28:18.605Z,74.72
2023-03-26T20:30:45.079Z,75.49
2023-03-26T20:33:13.560Z,74.79
2023-03-26T20:35:41.929Z,74.60
2023-03-26T20:38:09.815Z,74.53
2023-03-26T20:40:37.092Z,74.13
2023-03-26T20:43:04.667Z,74.17
2023-03-26T20:45:32.279Z,72.80
2023-03-26T20:47:59.909Z,73.13
2023-03-26T20:50:27.892Z,73.04
2023-03-26T20:52:56.049Z,72.66
2023-03-26T20:55:22.484Z,72.37
2023-03-26T20:57:48.976Z,72.39
2023-03-26T21:00:15.401Z,72.60
2023-03-26T21:02:43.271Z,72.45
2023-03-26T21:05:09.905Z,72.57
2023-03-26T21:07:36.332Z,73.14
2023-03-26T21:10:03.194Z,72.93
2023-03-26T21:12:30.824Z,73.30
2023-03-26T21:14:58.453Z,73.41
2023-03-26T21:17:26.098Z,73.22
2023-03-26T21:19:53.600Z,73.56
2023-03-26T21:22:22.204Z,73.48
2023-03-26T21:24:49.783Z,73.17
2023-03-26T21:27:16.396Z,72.75
2023-03-26T21:29:43.247Z,72.33
2023-03-26T21:32:09.724Z,72.24
2023-03-26T21:34:39.686Z,70.97
2023-03-26T21:37:06.873Z,71.38
2023-03-26T21:39:33.768Z,72.20
2023-03-26T21:42:05.248Z,72.18
2023-03-26T21:44:32.686Z,72.01
2023-03-26T21:46:59.161Z,72.44
2023-03-26T21:49:25.869Z,73.31
2023-03-26T21:51:53.464Z,72.07
2023-03-26T21:54:21.049Z,72.40
2023-03-26T21:56:47.648Z,72.72
2023-03-26T21:59:16.293Z,72.87
2023-03-26T22:01:42.803Z,72.66
2023-03-26T22:04:10.702Z,71.53
2023-03-26T22:06:38.016Z,71.85
2023-03-26T22:09:05.629Z,71.91
2023-03-26T22:11:33.194Z,72.86
2023-03-26T22:13:59.885Z,72.08
2023-03-26T22:16:27.497Z,72.91
2023-03-26T22:18:56.096Z,72.98
2023-03-26T22:21:22.700Z,72.57
2023-03-26T22:23:49.303Z,72.16
2023-03-26T22:26:16.884Z,72.74
2023-03-26T22:28:45.478Z,72.34
2023-03-26T22:31:13.146Z,72.63
2023-03-26T22:33:40.712Z,72.07
2023-03-26T22:36:22.239Z,72.24
2023-03-26T22:38:50.034Z,70.98
2023-03-26T22:41:17.550Z,70.71
2023-03-26T22:43:45.145Z,70.57
2023-03-26T22:46:11.761Z,70.41
2023-03-26T22:48:39.325Z,70.32
2023-03-26T22:51:06.942Z,70.52
2023-03-26T22:53:34.530Z,70.67
2023-03-26T22:56:02.128Z,71.27
2023-03-26T22:58:29.728Z,71.17
2023-03-26T23:00:57.427Z,71.41
2023-03-26T23:03:35.056Z,71.24
2023-03-26T23:06:02.562Z,71.65
2023-03-26T23:08:29.188Z,72.01
2023-03-26T23:10:55.957Z,71.78
2023-03-26T23:13:24.381Z,72.94
2023-03-26T23:15:50.838Z,73.00
2023-03-26T23:18:17.551Z,72.34
2023-03-26T23:20:45.160Z,71.71
2023-03-26T23:23:12.760Z,72.14
2023-03-26T23:25:40.326Z,73.71
2023-03-26T23:28:09.435Z,73.77
2023-03-26T23:30:36.506Z,73.60
2023-03-26T23:33:03.125Z,75.54
2023-03-26T23:35:30.681Z,74.86
2023-03-26T23:37:58.273Z,74.99
2023-03-26T23:40:25.873Z,73.97
2023-03-26T23:42:53.461Z,73.68
2023-03-26T23:45:20.038Z,73.51
2023-03-26T23:47:46.561Z,73.08
2023-03-26T23:50:13.174Z,73.37
2023-03-26T23:52:39.632Z,72.10
2023-03-26T23:55:06.417Z,72.55
2023-03-26T23:57:35.310Z,72.84
